createdAt,value
2023-01-13T00:01:15.348Z,101638.38
2023-01-13T00:03:43.545Z,101638.87
2023-01-13T00:06:18.381Z,101634.90
2023-01-13T00:08:48.167Z,101631.10
2023-01-13T00:11:15.032Z,101633.15
2023-01-13T00:13:41.958Z,101632.10
2023-01-13T00:16:14.943Z,101632.27
2023-01-13T00:18:42.099Z,101631.06
2023-01-13T00:21:23.100Z,101634.15
2023-01-13T00:23:51.456Z,101633.27
2023-01-13T00:26:20.031Z,101630.84
2023-01-13T00:28:46.880Z,101631.52
2023-01-13T00:31:23.204Z,101635.98
2023-01-13T00:33:50.699Z,101633.58
2023-01-13T00:36:19.509Z,101632.38
2023-01-13T00:38:47.355Z,101634.08
2023-01-13T00:41:16.551Z,101630.10
2023-01-13T00:43:43.300Z,101629.92
2023-01-13T00:46:12.407Z,101625.61
2023-01-13T00:48:39.870Z,101621.61
2023-01-13T00:51:14.317Z,101621.59
2023-01-13T00:53:43.275Z,101619.16
2023-01-13T00:56:34.100Z,101624.84
2023-01-13T00:59:05.112Z,101615.72
2023-01-13T01:01:32.713Z,101613.64
2023-01-13T01:03:59.930Z,101610.70
2023-01-13T01:06:27.701Z,101609.33
2023-01-13T01:08:55.276Z,101615.18
2023-01-13T01:11:29.578Z,101613.27
2023-01-13T01:13:57.745Z,101614.81
2023-01-13T01:16:27.001Z,101610.50
2023-01-13T01:18:54.726Z,101612.41
2023-01-13T01:21:23.089Z,101612.27
2023-01-13T01:23:49.935Z,101603.70
2023-01-13T01:26:22.725Z,101598.90
2023-01-13T01:28:49.713Z,101595.30
2023-01-13T01:31:21.629Z,101592.54
2023-01-13T01:33:49.084Z,101583.41
2023-01-13T01:36:17.565Z,101580.15
2023-01-13T01:38:44.547Z,101575.67
2023-01-13T01:41:19.852Z,101575.48
2023-01-13T01:44:01.951Z,101577.52
2023-01-13T01:46:43.335Z,101578.54
2023-01-13T01:49:19.397Z,101583.54
2023-01-13T01:52:19.862Z,101585.05
2023-01-13T01:54:50.775Z,101585.23
2023-01-13T01:57:19.453Z,101584.88
2023-01-13T01:59:46.322Z,101586.08
2023-01-13T02:02:13.419Z,101593.30
2023-01-13T02:04:50.068Z,101586.23
2023-01-13T02:07:19.215Z,101583.30
2023-01-13T02:09:46.877Z,101579.54
2023-01-13T02:12:29.078Z,101580.75
2023-01-13T02:14:58.485Z,101580.76
2023-01-13T02:17:47.444Z,101583.83
2023-01-13T02:20:37.126Z,101589.34
2023-01-13T02:23:57.232Z,101588.30
2023-01-13T02:26:45.975Z,101583.48
2023-01-13T02:29:59.823Z,101580.21
2023-01-13T02:32:33.706Z,101579.52
2023-01-13T02:35:09.688Z,101575.73
2023-01-13T02:37:38.370Z,101575.90
2023-01-13T02:40:18.650Z,101570.74
2023-01-13T02:43:08.314Z,101566.27
2023-01-13T02:45:41.652Z,101564.03
2023-01-13T02:48:08.447Z,101565.23
2023-01-13T02:50:50.442Z,101563.50
2023-01-13T02:53:25.581Z,101560.59
2023-01-13T03:03:32.932Z,101554.83
2023-01-13T03:06:19.332Z,101556.39
2023-01-13T03:08:51.274Z,101561.52
2023-01-13T03:11:19.364Z,101558.92
2023-01-13T03:13:58.696Z,101556.70
2023-01-13T03:16:44.259Z,101557.91
2023-01-13T03:19:11.220Z,101555.84
2023-01-13T03:21:53.014Z,101557.54
2023-01-13T03:24:43.041Z,101557.71
2023-01-13T03:27:15.989Z,101554.95
2023-01-13T03:30:07.543Z,101552.88
2023-01-13T03:32:39.700Z,101552.34
2023-01-13T03:35:13.921Z,101553.37
2023-01-13T03:37:49.931Z,101550.45
2023-01-13T03:40:26.411Z,101545.95
2023-01-13T03:43:19.690Z,101549.58
2023-01-13T03:45:47.767Z,101550.13
2023-01-13T03:48:16.536Z,101553.56
2023-01-13T03:50:49.329Z,101554.91
2023-01-13T03:53:28.986Z,101549.58
2023-01-13T03:56:02.188Z,101552.83
2023-01-13T03:58:31.314Z,101548.35
2023-01-13T04:01:35.790Z,101554.52
2023-01-13T04:04:07.670Z,101560.38
2023-01-13T04:07:15.031Z,101557.09
2023-01-13T04:10:05.387Z,101556.06
2023-01-13T04:12:52.890Z,101558.13
2023-01-13T04:15:25.257Z,101557.95
2023-01-13T04:17:53.206Z,101559.67
2023-01-13T04:20:20.461Z,101560.02
2023-01-13T04:22:47.304Z,101564.00
2023-01-13T04:25:14.289Z,101565.38
2023-01-13T04:27:41.092Z,101564.17
2023-01-13T04:30:09.064Z,101560.02
2023-01-13T04:32:35.843Z,101561.39
2023-01-13T04:35:03.672Z,101562.25
2023-01-13T04:37:30.364Z,101567.91
2023-01-13T04:39:58.526Z,101564.45
2023-01-13T04:42:25.296Z,101557.05
2023-01-13T04:44:52.181Z,101554.48
2023-01-13T04:47:19.003Z,101551.75
2023-01-13T04:49:45.789Z,101551.60
2023-01-13T04:52:12.614Z,101552.48
2023-01-13T04:54:39.549Z,101556.61
2023-01-13T04:57:06.385Z,101557.29
2023-01-13T04:59:34.593Z,101551.95
2023-01-13T05:02:01.751Z,101551.76
2023-01-13T05:04:28.780Z,101552.44
2023-01-13T05:06:55.737Z,101550.88
2023-01-13T05:09:22.458Z,101550.86
2023-01-13T05:12:08.242Z,101550.86
2023-01-13T05:14:54.025Z,101549.48
2023-01-13T05:17:22.828Z,101550.48
2023-01-13T05:19:50.169Z,101552.88
2023-01-13T05:22:35.856Z,101552.37
2023-01-13T05:25:21.684Z,101556.50
2023-01-13T05:27:53.501Z,101560.44
2023-01-13T05:30:25.080Z,101563.02
2023-01-13T05:32:52.002Z,101567.31
2023-01-13T05:35:18.955Z,101570.60
2023-01-13T05:37:46.197Z,101568.89
2023-01-13T05:40:32.835Z,101569.22
2023-01-13T05:43:24.585Z,101572.31
2023-01-13T05:45:59.703Z,101569.72
2023-01-13T05:48:37.483Z,101565.77
2023-01-13T05:51:05.358Z,101566.46
2023-01-13T05:53:32.399Z,101569.36
2023-01-13T05:55:59.261Z,101570.39
2023-01-13T05:58:27.306Z,101576.07
2023-01-13T06:00:58.606Z,101572.11
2023-01-13T06:03:25.417Z,101571.45
2023-01-13T08:13:22.164Z,101611.26
2023-01-13T08:15:51.950Z,101612.09
2023-01-13T08:18:21.407Z,101609.28
2023-01-13T08:20:48.829Z,101603.54
2023-01-13T08:23:16.361Z,101604.19
2023-01-13T08:25:43.122Z,101602.40
2023-01-13T08:28:10.401Z,101596.51
2023-01-13T08:30:39.697Z,101590.62
2023-01-13T08:33:07.551Z,101587.84
2023-01-13T08:35:40.551Z,101591.10
2023-01-13T08:38:07.577Z,101589.33
2023-01-13T08:40:34.284Z,101590.02
2023-01-13T08:43:00.877Z,101587.77
2023-01-13T08:45:27.502Z,101584.83
2023-01-13T08:47:54.200Z,101582.19
2023-01-13T10:12:43.878Z,101536.46
2023-01-13T10:15:14.949Z,101529.89
2023-01-13T10:26:01.343Z,101516.46
2023-01-13T10:28:28.399Z,101518.23
2023-01-13T10:30:55.218Z,101513.08
2023-01-13T10:33:28.656Z,101510.65
2023-01-13T10:35:56.772Z,101510.24
2023-01-13T10:38:36.374Z,101511.88
2023-01-13T10:41:05.855Z,101509.95
2023-01-13T10:43:32.812Z,101508.30
2023-01-13T10:46:06.575Z,101508.95
2023-01-13T10:48:36.103Z,101508.37
2023-01-13T10:51:18.349Z,101510.06
2023-01-13T10:53:55.529Z,101510.70
2023-01-13T10:56:23.797Z,101504.40
2023-01-13T10:58:50.906Z,101507.46
2023-01-13T11:01:28.417Z,101506.40
2023-01-13T11:03:55.418Z,101505.88
2023-01-13T11:06:29.823Z,101502.76
2023-01-13T11:08:58.688Z,101500.82
2023-01-13T11:11:40.415Z,101500.92
2023-01-13T11:14:42.380Z,101498.17
2023-01-13T11:17:12.359Z,101498.85
2023-01-13T11:19:42.485Z,101495.02
2023-01-13T11:22:28.499Z,101496.20
2023-01-13T11:24:56.656Z,101501.02
2023-01-13T11:27:46.991Z,101496.48
2023-01-13T11:30:29.860Z,101496.97
2023-01-13T11:33:02.737Z,101496.63
2023-01-13T11:35:30.432Z,101494.73
2023-01-13T11:38:06.584Z,101493.05
2023-01-13T11:40:38.184Z,101496.22
2023-01-13T11:43:07.778Z,101494.56
2023-01-13T11:45:50.963Z,101493.55
2023-01-13T11:48:20.937Z,101491.84
2023-01-13T11:50:53.919Z,101485.81
2023-01-13T11:53:53.069Z,101484.25
2023-01-13T11:56:47.997Z,101480.09
2023-01-13T11:59:47.541Z,101479.59
2023-01-13T14:09:29.258Z,101519.92
2023-01-13T14:12:01.361Z,101518.39
2023-01-13T14:14:28.908Z,101518.70
2023-01-13T14:16:56.594Z,101521.06
2023-01-13T14:19:34.069Z,101520.33
2023-01-13T14:29:41.192Z,101528.59
2023-01-13T14:32:08.007Z,101532.38
2023-01-13T14:34:34.789Z,101529.74
2023-01-13T14:37:03.180Z,101532.46
2023-01-13T14:39:38.859Z,101531.06
2023-01-13T14:42:11.933Z,101529.32
2023-01-13T14:44:38.728Z,101531.75
2023-01-13T14:47:24.307Z,101535.55
2023-01-13T14:50:01.156Z,101537.44
2023-01-13T14:52:30.349Z,101537.63
2023-01-13T14:55:10.482Z,101535.94
2023-01-13T14:57:39.627Z,101536.83
2023-01-13T15:00:15.601Z,101537.90
2023-01-13T15:02:58.995Z,101539.80
2023-01-13T15:05:25.867Z,101542.41
2023-01-13T15:07:53.571Z,101537.40
2023-01-13T15:10:28.283Z,101536.22
2023-01-13T15:12:56.642Z,101536.20
2023-01-13T15:15:28.102Z,101535.84
2023-01-13T15:17:54.847Z,101537.39
2023-01-13T15:20:24.033Z,101537.23
2023-01-13T15:22:52.095Z,101539.98
2023-01-13T15:25:18.939Z,101539.67
2023-01-13T15:27:50.826Z,101545.89
2023-01-13T15:30:27.657Z,101544.01
2023-01-13T15:32:55.272Z,101546.64
2023-01-13T15:35:23.110Z,101545.61
2023-01-13T15:37:49.917Z,101542.87
2023-01-13T15:40:30.748Z,101546.70
2023-01-13T15:43:16.654Z,101550.00
2023-01-13T15:46:02.282Z,101545.86
2023-01-13T15:48:30.904Z,101544.86
2023-01-13T15:50:57.725Z,101542.11
2023-01-13T15:53:25.527Z,101542.10
2023-01-13T15:55:56.662Z,101541.59
2023-01-13T15:58:28.412Z,101539.88
2023-01-13T16:00:55.660Z,101536.96
2023-01-13T16:03:22.807Z,101541.45
2023-01-13T16:05:49.743Z,101541.65
2023-01-13T16:08:17.845Z,101541.99
2023-01-13T16:10:45.087Z,101544.23
2023-01-13T16:13:13.150Z,101548.39
2023-01-13T16:15:43.534Z,101547.55
2023-01-13T16:18:16.322Z,101551.71
2023-01-13T16:20:43.922Z,101549.30
2023-01-13T16:23:11.421Z,101552.07
2023-01-13T16:25:38.535Z,101550.34
2023-01-13T16:28:06.180Z,101547.91
2023-01-13T16:30:35.102Z,101550.63
2023-01-13T16:33:03.403Z,101547.88
2023-01-13T16:35:32.223Z,101541.47
2023-01-13T16:37:59.988Z,101541.81
2023-01-13T16:40:31.239Z,101541.31
2023-01-13T16:42:58.362Z,101547.88
2023-01-13T16:45:25.382Z,101544.41
2023-01-13T16:47:52.818Z,101543.15
2023-01-13T16:50:29.056Z,101539.17
2023-01-13T16:52:55.916Z,101536.73
2023-01-13T16:55:22.820Z,101537.05
2023-01-13T16:57:49.596Z,101537.60
2023-01-13T17:00:17.019Z,101534.13
2023-01-13T17:02:44.110Z,101537.38
2023-01-13T17:05:12.146Z,101534.10
2023-01-13T17:07:40.061Z,101531.70
2023-01-13T17:10:07.576Z,101528.45
2023-01-13T17:12:34.402Z,101523.98
2023-01-13T17:15:01.197Z,101527.26
2023-01-13T17:17:28.111Z,101525.88
2023-01-13T17:19:55.143Z,101525.77
2023-01-13T17:22:22.027Z,101525.96
2023-01-13T17:24:49.045Z,101523.79
2023-01-13T17:27:17.447Z,101524.85
2023-01-13T17:29:44.992Z,101526.09
2023-01-13T17:32:18.127Z,101536.76
2023-01-13T17:34:45.201Z,101532.27
2023-01-13T17:37:15.449Z,101529.67
2023-01-13T17:39:44.232Z,101528.59
2023-01-13T17:42:11.225Z,101525.30
2023-01-13T17:44:38.753Z,101523.40
2023-01-13T17:47:05.824Z,101523.44
2023-01-13T17:49:32.845Z,101522.77
2023-01-13T17:51:59.687Z,101523.46
2023-01-13T17:54:26.629Z,101527.48
2023-01-13T17:56:53.527Z,101524.38
2023-01-13T17:59:20.529Z,101522.66
2023-01-13T18:01:47.334Z,101523.86
2023-01-13T18:04:21.731Z,101525.58
2023-01-13T18:06:48.788Z,101524.55
2023-01-13T18:09:16.392Z,101523.52
2023-01-13T18:11:43.578Z,101528.17
2023-01-13T18:14:10.586Z,101528.70
2023-01-13T18:16:37.852Z,101530.45
2023-01-13T18:19:23.728Z,101530.65
2023-01-13T18:22:23.072Z,101531.89
2023-01-13T18:25:09.473Z,101529.27
2023-01-13T18:27:38.149Z,101529.76
2023-01-13T18:30:06.720Z,101532.11
2023-01-13T18:32:33.876Z,101525.50
2023-01-13T18:35:06.147Z,101530.81
2023-01-13T18:37:36.212Z,101529.73
2023-01-13T18:40:04.382Z,101526.14
2023-01-13T18:42:50.315Z,101533.07
2023-01-13T18:45:25.899Z,101530.04
2023-01-13T18:47:54.161Z,101538.02
2023-01-13T18:50:21.283Z,101533.04
2023-01-13T18:52:48.265Z,101528.71
2023-01-13T18:55:15.173Z,101527.70
2023-01-13T18:57:41.975Z,101529.05
2023-01-13T19:00:12.426Z,101530.89
2023-01-13T19:02:39.341Z,101529.99
2023-01-13T19:05:06.929Z,101529.81
2023-01-13T19:07:35.758Z,101530.01
2023-01-13T19:10:04.571Z,101532.09
2023-01-13T19:12:31.591Z,101527.95
2023-01-13T19:14:58.632Z,101528.45
2023-01-13T19:17:26.817Z,101532.23
2023-01-13T19:19:54.980Z,101532.25
2023-01-13T19:22:23.705Z,101534.33
2023-01-13T19:24:50.810Z,101530.71
2023-01-13T19:27:18.196Z,101535.05
2023-01-13T19:29:51.808Z,101530.42
2023-01-13T19:32:21.032Z,101530.21
2023-01-13T19:34:50.917Z,101526.56
2023-01-13T19:37:18.345Z,101526.70
2023-01-13T19:39:45.216Z,101527.55
2023-01-13T19:42:31.498Z,101525.30
2023-01-13T19:45:17.497Z,101525.81
2023-01-13T19:47:45.913Z,101528.58
2023-01-13T19:50:13.741Z,101524.79
2023-01-13T19:52:41.878Z,101519.63
2023-01-13T19:55:09.959Z,101521.17
2023-01-13T19:57:37.797Z,101518.42
2023-01-13T20:00:07.139Z,101522.89
2023-01-13T20:02:45.045Z,101520.48
2023-01-13T20:05:15.370Z,101512.89
2023-01-13T20:07:42.731Z,101511.48
2023-01-13T20:10:10.492Z,101509.91
2023-01-13T20:12:37.440Z,101507.98
2023-01-13T20:15:05.904Z,101511.59
2023-01-13T20:17:32.871Z,101513.67
2023-01-13T20:19:59.810Z,101511.30
2023-01-13T20:22:26.569Z,101515.62
2023-01-13T20:24:55.416Z,101512.34
2023-01-13T20:27:23.881Z,101511.27
2023-01-13T20:29:51.005Z,101509.34
2023-01-13T20:32:17.769Z,101507.57
2023-01-13T20:34:44.966Z,101505.66
2023-01-13T20:37:11.685Z,101504.59
2023-01-13T20:39:40.228Z,101505.27
2023-01-13T20:42:25.723Z,101506.98
2023-01-13T20:44:52.715Z,101505.16
2023-01-13T20:47:19.667Z,101502.41
2023-01-13T20:49:46.827Z,101503.30
2023-01-13T20:52:14.190Z,101506.25
2023-01-13T20:54:41.259Z,101504.36
2023-01-13T20:57:10.074Z,101503.14
2023-01-13T20:59:37.878Z,101498.65
2023-01-13T21:02:06.255Z,101500.88
2023-01-13T21:04:33.840Z,101502.61
2023-01-13T21:07:00.699Z,101506.08
2023-01-13T21:09:27.504Z,101508.88
2023-01-13T21:12:13.215Z,101510.96
2023-01-13T21:14:58.971Z,101511.02
2023-01-13T21:17:44.533Z,101511.52
2023-01-13T21:20:12.561Z,101508.73
2023-01-13T21:22:40.874Z,101513.90
2023-01-13T21:25:08.462Z,101517.00
2023-01-13T21:27:35.408Z,101511.95
2023-01-13T21:30:02.307Z,101511.63
2023-01-13T21:32:29.106Z,101509.92
2023-01-13T21:34:56.660Z,101511.85
2023-01-13T21:37:23.549Z,101517.59
2023-01-13T21:39:50.353Z,101516.59
2023-01-13T21:42:36.486Z,101516.39
2023-01-13T21:45:22.556Z,101512.42
2023-01-13T21:47:49.486Z,101506.07
2023-01-13T21:50:21.761Z,101506.41
2023-01-13T21:52:49.067Z,101505.35
2023-01-13T21:55:27.845Z,101506.20
2023-01-13T21:57:58.763Z,101502.60
2023-01-13T22:00:26.576Z,101503.81
2023-01-13T22:02:53.422Z,101506.12
2023-01-13T22:05:21.346Z,101505.48
2023-01-13T22:07:48.233Z,101502.73
2023-01-13T22:10:19.945Z,101503.80
2023-01-13T22:12:48.415Z,101501.18
2023-01-13T22:15:16.233Z,101497.39
2023-01-13T22:17:43.238Z,101497.59
2023-01-13T22:20:11.557Z,101496.54
2023-01-13T22:22:39.077Z,101498.25
2023-01-13T22:25:08.164Z,101498.47
2023-01-13T22:27:40.745Z,101498.31
2023-01-13T22:30:18.899Z,101501.10
2023-01-13T22:32:46.119Z,101504.40
2023-01-13T22:35:14.185Z,101504.58
2023-01-13T22:37:41.686Z,101503.17
2023-01-13T22:40:10.229Z,101499.68
2023-01-13T22:42:40.762Z,101496.40
2023-01-13T22:45:10.407Z,101493.50
2023-01-13T22:47:37.402Z,101490.88
2023-01-13T22:50:05.314Z,101487.44
2023-01-13T22:52:33.761Z,101482.78
2023-01-13T22:55:01.009Z,101478.63
2023-01-13T22:57:36.050Z,101477.06
2023-01-13T23:00:10.421Z,101476.20
2023-01-13T23:02:38.549Z,101478.27
2023-01-13T23:05:06.107Z,101481.17
2023-01-13T23:07:33.046Z,101481.11
2023-01-13T23:10:00.109Z,101480.52
2023-01-13T23:12:26.961Z,101481.53
2023-01-13T23:14:55.017Z,101484.58
2023-01-13T23:17:21.864Z,101486.09
2023-01-13T23:19:48.704Z,101485.69
2023-01-13T23:22:15.951Z,101483.58
2023-01-13T23:24:42.800Z,101486.69
2023-01-13T23:27:09.519Z,101486.90
2023-01-13T23:29:36.843Z,101481.58
2023-01-13T23:32:04.459Z,101482.98
2023-01-13T23:34:31.293Z,101487.65
2023-01-13T23:36:58.546Z,101486.45
2023-01-13T23:39:25.390Z,101488.05
2023-01-13T23:41:52.237Z,101491.67
2023-01-13T23:44:19.488Z,101494.41
2023-01-13T23:46:46.302Z,101491.14
2023-01-13T23:49:13.014Z,101495.42
2023-01-13T23:51:40.019Z,101494.49
2023-01-13T23:54:06.870Z,101498.57
2023-01-13T23:56:35.138Z,101497.34
2023-01-13T23:59:01.888Z,101496.35
